createdAt,value
2022-10-21T00:01:47.985Z,92.76
2022-10-21T00:04:14.519Z,92.81
2022-10-21T00:06:40.902Z,92.89
2022-10-21T00:09:07.314Z,92.99
2022-10-21T00:11:33.829Z,93.15
2022-10-21T00:14:00.155Z,93.18
2022-10-21T00:16:26.582Z,93.36
2022-10-21T00:18:52.906Z,93.11
2022-10-21T00:21:22.064Z,93.11
2022-10-21T00:23:50.087Z,93.09
2022-10-21T00:26:17.986Z,92.88
2022-10-21T00:28:44.902Z,92.75
2022-10-21T00:31:13.766Z,92.87
2022-10-21T00:33:40.485Z,92.71
2022-10-21T00:36:07.746Z,92.58
2022-10-21T00:38:35.972Z,93.05
2022-10-21T00:41:02.497Z,93.24
2022-10-21T00:43:32.447Z,93.64
2022-10-21T00:46:04.999Z,94.39
2022-10-21T00:48:35.798Z,94.05
2022-10-21T00:51:12.742Z,94.62
2022-10-21T00:53:42.849Z,93.79
2022-10-21T00:56:16.817Z,93.95
2022-10-21T00:58:48.886Z,93.63
2022-10-21T01:01:19.202Z,93.67
2022-10-21T01:03:47.918Z,93.69
2022-10-21T01:06:15.632Z,93.75
2022-10-21T01:08:42.063Z,93.76
2022-10-21T01:11:13.747Z,94.27
2022-10-21T01:14:17.823Z,95.37
2022-10-21T01:17:26.386Z,95.05
2022-10-21T01:20:19.069Z,94.88
2022-10-21T01:23:10.298Z,94.54
2022-10-21T01:26:20.830Z,95.29
2022-10-21T01:29:09.026Z,93.91
2022-10-21T01:32:04.586Z,94.95
2022-10-21T01:34:37.437Z,94.30
2022-10-21T01:37:11.787Z,93.83
2022-10-21T01:40:17.050Z,94.70
2022-10-21T01:43:13.755Z,93.39
2022-10-21T01:45:51.403Z,93.58
2022-10-21T01:48:22.054Z,92.79
2022-10-21T01:50:55.130Z,92.58
2022-10-21T01:53:26.597Z,92.55
2022-10-21T01:55:55.679Z,92.65
2022-10-21T01:58:26.872Z,93.05
2022-10-21T02:00:56.561Z,93.14
2022-10-21T02:03:30.321Z,93.46
2022-10-21T02:05:56.692Z,92.95
2022-10-21T02:08:23.225Z,93.17
2022-10-21T02:10:52.596Z,93.07
2022-10-21T02:13:25.035Z,93.02
2022-10-21T02:15:57.865Z,92.94
2022-10-21T02:18:25.716Z,92.69
2022-10-21T02:21:06.388Z,92.88
2022-10-21T02:23:51.086Z,93.90
2022-10-21T02:26:17.873Z,92.27
2022-10-21T02:28:44.340Z,92.24
2022-10-21T02:31:27.061Z,93.28
2022-10-21T02:34:05.927Z,93.22
2022-10-21T02:36:42.219Z,93.14
2022-10-21T02:39:23.759Z,94.51
2022-10-21T02:41:53.334Z,93.59
2022-10-21T02:44:20.079Z,93.47
2022-10-21T02:46:47.901Z,93.51
2022-10-21T02:49:16.991Z,93.64
2022-10-21T02:51:45.184Z,93.66
2022-10-21T02:54:12.186Z,94.00
2022-10-21T02:56:38.571Z,93.94
2022-10-21T02:59:04.909Z,93.90
2022-10-21T03:01:31.487Z,93.93
2022-10-21T03:03:57.895Z,94.22
2022-10-21T03:06:24.400Z,94.41
2022-10-21T03:08:50.824Z,94.66
2022-10-21T03:11:17.304Z,94.80
2022-10-21T03:13:43.827Z,95.15
2022-10-21T03:16:10.322Z,94.98
2022-10-21T03:18:36.762Z,95.18
2022-10-21T03:21:03.213Z,95.01
2022-10-21T03:23:29.954Z,94.94
2022-10-21T03:25:56.301Z,94.72
2022-10-21T03:28:22.669Z,94.40
2022-10-21T03:30:49.053Z,94.31
2022-10-21T03:33:15.490Z,94.06
2022-10-21T03:35:41.872Z,93.87
2022-10-21T03:38:08.293Z,93.61
2022-10-21T03:40:34.856Z,93.43
2022-10-21T03:43:01.290Z,93.12
2022-10-21T03:45:27.774Z,92.90
2022-10-21T03:47:54.267Z,92.96
2022-10-21T03:50:26.173Z,92.91
2022-10-21T03:52:53.257Z,92.75
2022-10-21T03:55:21.034Z,93.08
2022-10-21T03:57:48.135Z,93.01
2022-10-21T04:00:15.502Z,92.64
2022-10-21T04:02:42.270Z,92.68
2022-10-21T04:05:09.384Z,92.88
2022-10-21T04:07:36.013Z,93.13
2022-10-21T04:10:02.534Z,92.89
2022-10-21T04:12:28.967Z,92.94
2022-10-21T04:14:55.356Z,93.46
2022-10-21T04:17:21.770Z,93.59
2022-10-21T04:19:48.316Z,93.76
2022-10-21T04:22:17.472Z,93.96
2022-10-21T04:24:43.877Z,93.76
2022-10-21T04:27:10.341Z,93.57
2022-10-21T04:29:36.746Z,93.52
2022-10-21T04:32:03.513Z,93.59
2022-10-21T04:34:30.361Z,93.48
2022-10-21T04:36:59.850Z,93.31
2022-10-21T04:39:29.297Z,93.35
2022-10-21T04:41:56.411Z,93.34
2022-10-21T04:44:22.860Z,93.40
2022-10-21T04:46:49.249Z,93.15
2022-10-21T04:49:15.648Z,93.21
2022-10-21T04:51:42.151Z,93.22
2022-10-21T04:54:08.526Z,93.65
2022-10-21T04:56:34.857Z,93.73
2022-10-21T04:59:01.237Z,93.80
2022-10-21T05:01:27.680Z,93.83
2022-10-21T05:03:54.220Z,93.82
2022-10-21T05:06:20.865Z,93.85
2022-10-21T05:08:47.267Z,94.04
2022-10-21T05:11:13.835Z,94.18
2022-10-21T05:13:40.364Z,94.35
2022-10-21T05:16:07.252Z,94.60
2022-10-21T05:18:33.730Z,94.56
2022-10-21T05:21:00.434Z,94.54
2022-10-21T05:23:27.474Z,94.46
2022-10-21T05:25:54.374Z,94.21
2022-10-21T05:28:21.762Z,94.33
2022-10-21T05:30:48.483Z,94.42
2022-10-21T05:33:15.826Z,94.29
2022-10-21T05:35:42.341Z,94.65
2022-10-21T05:38:08.714Z,94.84
2022-10-21T05:40:35.105Z,94.86
2022-10-21T05:43:01.646Z,94.95
2022-10-21T05:45:28.235Z,95.13
2022-10-21T05:47:54.606Z,95.46
2022-10-21T05:50:21.319Z,95.44
2022-10-21T05:52:47.685Z,95.48
2022-10-21T05:55:14.139Z,95.97
2022-10-21T05:57:40.581Z,95.78
2022-10-21T06:00:08.141Z,95.66
2022-10-21T06:02:34.606Z,95.74
2022-10-21T06:05:01.017Z,95.44
2022-10-21T06:07:27.634Z,95.50
2022-10-21T06:09:54.985Z,95.38
2022-10-21T06:12:22.293Z,95.43
2022-10-21T06:14:48.754Z,95.56
2022-10-21T06:17:15.210Z,95.46
2022-10-21T06:19:41.691Z,95.52
2022-10-21T06:22:08.039Z,95.94
2022-10-21T06:24:34.607Z,95.93
2022-10-21T06:27:01.087Z,95.83
2022-10-21T06:29:27.584Z,95.93
2022-10-21T06:31:54.034Z,95.93
2022-10-21T06:34:20.534Z,95.86
2022-10-21T06:36:46.975Z,95.78
2022-10-21T06:39:13.392Z,96.13
2022-10-21T06:41:39.752Z,96.05
2022-10-21T06:44:06.181Z,96.19
2022-10-21T06:46:32.555Z,96.36
2022-10-21T06:48:58.933Z,96.46
2022-10-21T06:51:25.574Z,96.37
2022-10-21T06:53:54.625Z,96.60
2022-10-21T06:56:21.990Z,96.47
2022-10-21T06:58:50.222Z,96.43
2022-10-21T07:01:33.428Z,96.31
2022-10-21T07:04:01.548Z,96.45
2022-10-21T07:06:28.019Z,96.41
2022-10-21T07:08:58.274Z,96.36
2022-10-21T07:11:26.072Z,96.26
2022-10-21T07:13:52.491Z,96.33
2022-10-21T07:16:33.318Z,97.25
2022-10-21T07:19:00.207Z,95.80
2022-10-21T07:21:29.649Z,95.99
2022-10-21T07:23:59.305Z,96.00
2022-10-21T07:26:28.232Z,95.74
2022-10-21T07:28:57.915Z,95.81
2022-10-21T07:31:24.519Z,95.67
2022-10-21T07:33:51.292Z,95.56
2022-10-21T07:36:21.708Z,95.72
2022-10-21T07:38:49.760Z,95.43
2022-10-21T07:41:19.956Z,95.55
2022-10-21T07:43:46.886Z,95.52
2022-10-21T07:46:13.858Z,95.53
2022-10-21T07:48:40.234Z,95.46
2022-10-21T07:51:12.421Z,95.48
2022-10-21T07:53:40.226Z,95.42
2022-10-21T07:56:06.779Z,95.53
2022-10-21T07:58:33.639Z,95.56
2022-10-21T08:01:01.927Z,95.68
2022-10-21T08:03:28.810Z,95.85
2022-10-21T08:05:56.129Z,96.08
2022-10-21T08:08:28.482Z,95.95
2022-10-21T08:10:56.031Z,96.26
2022-10-21T08:13:23.240Z,96.15
2022-10-21T08:15:52.130Z,96.03
2022-10-21T08:18:19.493Z,95.96
2022-10-21T08:20:47.783Z,96.39
2022-10-21T08:23:16.980Z,96.19
2022-10-21T08:25:50.522Z,96.57
2022-10-21T08:28:17.975Z,95.59
2022-10-21T08:30:44.739Z,94.85
2022-10-21T08:33:12.368Z,94.74
2022-10-21T08:35:39.660Z,94.85
2022-10-21T08:40:41.316Z,94.45
2022-10-21T08:43:22.275Z,95.47
2022-10-21T08:45:54.508Z,94.79
2022-10-21T08:48:26.119Z,94.49
2022-10-21T08:50:56.117Z,94.78
2022-10-21T08:53:24.393Z,94.80
2022-10-21T08:55:56.064Z,95.32
2022-10-21T08:58:23.733Z,95.09
2022-10-21T09:01:03.259Z,96.09
2022-10-21T09:03:54.363Z,96.88
2022-10-21T09:06:27.946Z,95.32
2022-10-21T09:08:57.423Z,94.92
2022-10-21T09:11:33.074Z,95.24
2022-10-21T09:14:17.090Z,96.02
2022-10-21T09:17:01.051Z,95.91
2022-10-21T09:20:01.853Z,96.95
2022-10-21T09:22:46.919Z,95.86
2022-10-21T09:25:25.441Z,95.26
2022-10-21T09:27:57.236Z,93.46
2022-10-21T09:30:24.822Z,93.58
2022-10-21T09:32:56.432Z,92.89
2022-10-21T09:35:23.916Z,91.56
2022-10-21T09:38:02.270Z,91.38
2022-10-21T09:40:30.921Z,89.86
2022-10-21T09:43:00.609Z,88.64
2022-10-21T09:45:37.638Z,89.18
2022-10-21T09:48:50.247Z,91.67
2022-10-21T09:51:28.756Z,89.62
2022-10-21T09:54:17.913Z,90.95
2022-10-21T09:56:49.946Z,89.63
2022-10-21T09:59:19.560Z,89.92
2022-10-21T10:01:46.468Z,89.43
2022-10-21T10:04:29.347Z,91.11
2022-10-21T10:06:56.659Z,89.23
2022-10-21T10:09:34.255Z,89.42
2022-10-21T10:12:12.481Z,86.86
2022-10-21T10:14:41.209Z,86.22
2022-10-21T10:17:25.607Z,86.75
2022-10-21T10:20:07.319Z,85.36
2022-10-21T10:22:41.727Z,82.22
2022-10-21T10:25:14.375Z,83.22
2022-10-21T10:27:59.283Z,81.08
2022-10-21T10:30:36.123Z,78.62
2022-10-21T10:33:09.428Z,76.79
2022-10-21T10:35:37.849Z,75.21
2022-10-21T10:38:05.350Z,72.39
2022-10-21T10:40:41.741Z,72.28
2022-10-21T10:43:21.104Z,72.90
2022-10-21T10:45:54.003Z,69.44
2022-10-21T10:48:25.418Z,67.16
2022-10-21T10:50:51.899Z,67.19
2022-10-21T10:53:32.053Z,63.45
2022-10-21T10:56:14.931Z,64.30
2022-10-21T10:59:01.835Z,63.85
2022-10-21T11:01:34.287Z,60.62
2022-10-21T11:04:21.114Z,62.48
2022-10-21T11:06:52.363Z,59.67
2022-10-21T11:09:22.608Z,59.85
2022-10-21T11:11:54.678Z,59.88
2022-10-21T11:14:22.833Z,58.48
2022-10-21T11:17:01.047Z,58.35
2022-10-21T11:19:39.780Z,59.29
2022-10-21T11:22:34.176Z,59.38
2022-10-21T11:25:21.977Z,58.45
2022-10-21T11:27:59.635Z,58.18
2022-10-21T11:30:39.196Z,57.93
2022-10-21T11:33:19.071Z,58.01
2022-10-21T11:35:59.333Z,57.29
2022-10-21T11:38:50.324Z,56.44
2022-10-21T11:41:31.911Z,56.76
2022-10-21T11:44:31.498Z,57.16
2022-10-21T11:47:09.477Z,56.71
2022-10-21T11:49:50.547Z,55.74
2022-10-21T11:52:38.730Z,55.43
2022-10-21T11:55:27.329Z,54.10
2022-10-21T11:58:08.034Z,54.20
2022-10-21T12:00:48.902Z,54.21
2022-10-21T12:03:44.032Z,54.47
2022-10-21T12:06:34.653Z,55.36
2022-10-21T12:09:06.208Z,53.72
2022-10-21T12:11:44.610Z,53.99
2022-10-21T12:14:31.059Z,53.87
2022-10-21T12:17:01.538Z,53.94
2022-10-21T12:19:28.325Z,54.41
2022-10-21T12:21:55.093Z,53.33
2022-10-21T12:24:38.453Z,55.40
2022-10-21T12:27:25.934Z,54.82
2022-10-21T12:30:23.475Z,56.88
2022-10-21T12:33:12.825Z,56.51
2022-10-21T12:35:50.421Z,56.87
2022-10-21T12:38:43.725Z,57.54
2022-10-21T12:41:26.195Z,57.60
2022-10-21T12:43:53.911Z,56.65
2022-10-21T12:46:26.226Z,57.75
2022-10-21T12:48:52.935Z,57.38
2022-10-21T12:51:25.922Z,59.32
2022-10-21T12:53:58.292Z,60.07
2022-10-21T12:56:42.615Z,61.13
2022-10-21T12:59:44.663Z,61.85
2022-10-21T13:02:25.025Z,63.45
2022-10-21T13:04:54.862Z,62.84
2022-10-21T13:07:21.178Z,62.61
2022-10-21T13:09:56.712Z,63.21
2022-10-21T13:12:23.081Z,63.14
2022-10-21T13:14:52.090Z,64.12
2022-10-21T13:17:21.438Z,64.45
2022-10-21T13:19:48.851Z,64.22
2022-10-21T13:22:20.064Z,64.02
2022-10-21T13:24:47.119Z,63.54
2022-10-21T13:27:35.858Z,64.95
2022-10-21T13:30:03.041Z,64.39
2022-10-21T13:33:02.672Z,65.99
2022-10-21T13:35:36.765Z,65.97
2022-10-21T13:38:21.014Z,66.27
2022-10-21T13:40:51.122Z,65.70
2022-10-21T13:43:20.113Z,65.77
2022-10-21T13:45:49.883Z,66.44
2022-10-21T13:48:19.760Z,66.76
2022-10-21T13:50:48.652Z,67.41
2022-10-21T13:53:17.728Z,67.63
2022-10-21T13:56:01.762Z,67.82
2022-10-21T13:58:30.428Z,67.58
2022-10-21T14:00:59.003Z,67.34
2022-10-21T14:03:26.543Z,67.63
2022-10-21T14:05:58.145Z,67.30
2022-10-21T14:08:34.123Z,68.26
2022-10-21T14:11:24.110Z,69.00
2022-10-21T14:13:51.321Z,68.00
2022-10-21T14:16:40.919Z,68.18
2022-10-21T14:19:14.441Z,68.53
2022-10-21T14:21:45.199Z,69.19
2022-10-21T14:24:38.951Z,69.38
2022-10-21T14:27:06.501Z,69.98
2022-10-21T14:29:35.635Z,70.40
2022-10-21T14:32:03.550Z,71.18
2022-10-21T14:34:32.868Z,70.80
2022-10-21T14:37:23.147Z,71.11
2022-10-21T14:39:49.886Z,71.08
2022-10-21T14:42:25.582Z,72.53
2022-10-21T14:45:02.497Z,72.75
2022-10-21T14:47:29.028Z,72.63
2022-10-21T14:49:59.765Z,72.71
2022-10-21T14:52:42.599Z,73.63
2022-10-21T14:55:14.248Z,73.71
2022-10-21T14:57:45.550Z,74.26
2022-10-21T15:00:30.201Z,74.60
2022-10-21T15:02:58.372Z,74.85
2022-10-21T15:05:37.663Z,75.75
2022-10-21T15:08:19.190Z,75.92
2022-10-21T15:10:46.499Z,75.81
2022-10-21T15:13:17.206Z,76.14
2022-10-21T15:15:55.087Z,76.49
2022-10-21T15:18:43.779Z,77.08
2022-10-21T15:21:13.785Z,77.64
2022-10-21T15:23:43.361Z,77.53
2022-10-21T15:26:19.158Z,78.15
2022-10-21T15:28:45.663Z,77.56
2022-10-21T15:31:20.304Z,78.72
2022-10-21T15:33:48.819Z,78.42
2022-10-21T15:36:16.070Z,78.21
2022-10-21T15:38:46.829Z,78.77
2022-10-21T15:41:18.883Z,78.81
2022-10-21T15:43:57.131Z,80.17
2022-10-21T15:46:25.659Z,79.31
2022-10-21T15:48:52.753Z,79.67
2022-10-21T15:51:19.820Z,79.75
2022-10-21T15:53:46.231Z,80.09
2022-10-21T15:56:17.070Z,80.76
2022-10-21T15:58:43.511Z,80.12
2022-10-21T16:01:15.942Z,81.13
2022-10-21T16:03:43.450Z,80.61
2022-10-21T16:06:19.715Z,81.68
2022-10-21T16:08:46.883Z,81.13
2022-10-21T16:11:25.606Z,81.82
2022-10-21T16:14:01.476Z,82.53
2022-10-21T16:16:27.965Z,83.39
2022-10-21T16:18:54.322Z,84.09
2022-10-21T16:21:22.592Z,84.47
2022-10-21T16:23:49.842Z,84.97
2022-10-21T16:26:23.647Z,85.94
2022-10-21T16:28:51.645Z,85.80
2022-10-21T16:31:18.907Z,85.64
2022-10-21T16:33:45.661Z,85.90
2022-10-21T16:36:23.924Z,87.13
2022-10-21T16:38:51.250Z,87.30
2022-10-21T16:41:28.722Z,87.99
2022-10-21T16:43:56.270Z,86.85
2022-10-21T16:46:41.783Z,88.03
2022-10-21T16:49:14.841Z,87.49
2022-10-21T16:51:45.992Z,87.65
2022-10-21T16:54:13.114Z,88.04
2022-10-21T16:56:39.580Z,88.42
2022-10-21T16:59:06.113Z,88.67
2022-10-21T17:01:32.726Z,88.51
2022-10-21T17:03:59.171Z,88.26
2022-10-21T17:06:26.546Z,89.04
2022-10-21T17:08:55.242Z,89.55
2022-10-21T17:11:25.269Z,89.94
2022-10-21T17:13:51.898Z,89.59
2022-10-21T17:16:20.062Z,89.71
2022-10-21T17:18:47.694Z,90.04
2022-10-21T17:21:26.324Z,91.56
2022-10-21T17:23:53.824Z,90.96
2022-10-21T17:26:20.631Z,91.44
2022-10-21T17:28:47.354Z,91.59
2022-10-21T17:31:19.900Z,91.81
2022-10-21T17:33:47.469Z,91.74
2022-10-21T17:36:15.649Z,91.87
2022-10-21T17:38:42.100Z,92.08
2022-10-21T17:41:09.866Z,92.24
2022-10-21T17:43:36.970Z,92.28
2022-10-21T17:46:04.247Z,92.36
2022-10-21T17:48:32.159Z,92.00
2022-10-21T17:51:01.663Z,92.17
2022-10-21T17:53:30.064Z,91.82
2022-10-21T17:56:00.800Z,92.37
2022-10-21T17:58:27.891Z,91.92
2022-10-21T18:00:57.980Z,91.66
2022-10-21T18:03:25.207Z,91.62
2022-10-21T18:05:52.441Z,91.68
2022-10-21T18:08:19.027Z,91.62
2022-10-21T18:10:53.238Z,92.14
2022-10-21T18:13:19.895Z,91.35
2022-10-21T18:15:46.302Z,91.29
2022-10-21T18:18:12.925Z,91.32
2022-10-21T18:20:39.401Z,91.14
2022-10-21T18:23:05.766Z,91.36
2022-10-21T18:25:35.374Z,91.30
2022-10-21T18:28:01.835Z,91.35
2022-10-21T18:30:28.343Z,91.42
2022-10-21T18:32:54.767Z,91.34
2022-10-21T18:35:21.131Z,91.30
2022-10-21T18:37:47.773Z,91.32
2022-10-21T18:40:14.273Z,91.57
2022-10-21T18:42:40.795Z,91.56
2022-10-21T18:45:07.603Z,91.38
2022-10-21T18:47:34.706Z,91.22
2022-10-21T18:50:05.072Z,91.89
2022-10-21T18:52:31.430Z,91.00
2022-10-21T18:54:57.987Z,90.97
2022-10-21T18:57:24.492Z,90.86
2022-10-21T18:59:50.910Z,90.72
2022-10-21T19:02:20.950Z,90.82
2022-10-21T19:04:47.744Z,90.56
2022-10-21T19:07:14.517Z,90.30
2022-10-21T19:09:40.886Z,90.69
2022-10-21T19:12:10.663Z,90.60
2022-10-21T19:14:40.887Z,90.55
2022-10-21T19:17:07.411Z,90.78
2022-10-21T19:19:37.152Z,90.69
2022-10-21T19:22:05.711Z,91.06
2022-10-21T19:24:32.106Z,91.15
2022-10-21T19:26:59.002Z,91.49
2022-10-21T19:29:26.016Z,91.95
2022-10-21T19:31:52.743Z,92.09
2022-10-21T19:34:22.379Z,92.57
2022-10-21T19:36:49.736Z,93.03
2022-10-21T19:39:16.319Z,93.02
2022-10-21T19:41:43.226Z,92.96
2022-10-21T19:44:09.873Z,93.63
2022-10-21T19:46:36.927Z,94.29
2022-10-21T19:49:05.241Z,94.71
2022-10-21T19:51:32.480Z,94.67
2022-10-21T19:53:59.363Z,94.94
2022-10-21T19:56:29.612Z,94.93
2022-10-21T19:58:57.312Z,94.96
2022-10-21T20:01:26.283Z,95.39
2022-10-21T20:03:54.362Z,94.93
2022-10-21T20:06:30.033Z,96.20
2022-10-21T20:09:00.382Z,95.30
2022-10-21T20:11:27.960Z,95.15
2022-10-21T20:13:55.253Z,94.86
2022-10-21T20:16:27.338Z,95.36
2022-10-21T20:18:54.909Z,95.12
2022-10-21T20:21:22.880Z,95.18
2022-10-21T20:23:50.549Z,95.43
2022-10-21T20:26:16.995Z,95.28
2022-10-21T20:28:43.453Z,95.29
2022-10-21T20:31:12.309Z,95.48
2022-10-21T20:33:42.093Z,95.54
2022-10-21T20:36:20.730Z,96.45
2022-10-21T20:38:47.864Z,95.10
2022-10-21T20:41:17.731Z,94.97
2022-10-21T20:43:44.296Z,94.51
2022-10-21T20:46:13.077Z,94.56
2022-10-21T20:48:44.692Z,94.97
2022-10-21T20:51:16.539Z,94.73
2022-10-21T20:53:50.232Z,95.07
2022-10-21T20:56:16.822Z,94.56
2022-10-21T20:58:43.401Z,94.85
2022-10-21T21:01:17.872Z,95.59
2022-10-21T21:03:45.555Z,95.17
2022-10-21T21:06:12.571Z,95.21
2022-10-21T21:08:48.664Z,95.04
2022-10-21T21:11:25.049Z,95.13
2022-10-21T21:13:51.425Z,95.12
2022-10-21T21:16:20.340Z,95.52
2022-10-21T21:18:51.615Z,95.79
2022-10-21T21:21:20.367Z,95.21
2022-10-21T21:23:46.807Z,95.04
2022-10-21T21:26:17.661Z,94.76
2022-10-21T21:28:45.434Z,95.47
2022-10-21T21:31:12.788Z,95.57
2022-10-21T21:33:39.826Z,95.59
2022-10-21T21:36:06.868Z,95.77
2022-10-21T21:38:34.709Z,95.77
2022-10-21T21:41:03.550Z,95.52
2022-10-21T21:43:32.754Z,95.74
2022-10-21T21:45:59.716Z,95.58
2022-10-21T21:48:26.994Z,95.19
2022-10-21T21:51:04.568Z,96.49
2022-10-21T21:53:31.060Z,95.33
2022-10-21T21:56:03.280Z,96.00
2022-10-21T21:58:30.342Z,95.88
2022-10-21T22:00:56.693Z,95.98
2022-10-21T22:03:23.416Z,95.86
2022-10-21T22:05:50.086Z,96.47
2022-10-21T22:08:16.471Z,96.94
2022-10-21T22:10:42.926Z,97.58
2022-10-21T22:13:09.403Z,98.10
2022-10-21T22:15:47.445Z,98.45
2022-10-21T22:18:14.747Z,98.57
2022-10-21T22:20:41.158Z,99.15
2022-10-21T22:23:07.592Z,99.21
2022-10-21T22:25:34.005Z,99.13
2022-10-21T22:28:00.499Z,99.12
2022-10-21T22:30:26.849Z,99.13
2022-10-21T22:32:53.230Z,98.93
2022-10-21T22:35:19.873Z,98.80
2022-10-21T22:37:46.288Z,98.61
2022-10-21T22:40:12.824Z,98.59
2022-10-21T22:42:39.257Z,98.43
2022-10-21T22:45:06.360Z,98.35
2022-10-21T22:47:32.861Z,98.28
2022-10-21T22:49:59.288Z,98.21
2022-10-21T22:52:25.742Z,97.81
2022-10-21T22:54:52.113Z,98.24
2022-10-21T22:57:20.540Z,98.15
2022-10-21T22:59:52.051Z,97.96
2022-10-21T23:02:19.837Z,98.13
2022-10-21T23:04:46.206Z,98.02
2022-10-21T23:07:12.862Z,97.91
2022-10-21T23:09:39.243Z,97.84
2022-10-21T23:12:05.751Z,97.89
2022-10-21T23:14:32.165Z,98.05
2022-10-21T23:16:58.530Z,97.74
2022-10-21T23:19:24.965Z,97.83
2022-10-21T23:21:51.326Z,97.71
2022-10-21T23:24:17.727Z,97.74
2022-10-21T23:26:44.105Z,97.72
2022-10-21T23:29:10.572Z,97.58
2022-10-21T23:31:36.969Z,97.66
2022-10-21T23:34:05.845Z,97.87
2022-10-21T23:36:33.465Z,97.78
2022-10-21T23:39:00.177Z,97.98
2022-10-21T23:41:26.581Z,97.76
2022-10-21T23:43:53.165Z,97.59
2022-10-21T23:46:21.004Z,97.75
2022-10-21T23:48:47.436Z,97.69
2022-10-21T23:51:13.864Z,97.74
2022-10-21T23:53:40.453Z,97.38
2022-10-21T23:56:07.316Z,97.48
2022-10-21T23:58:33.829Z,97.36
